METAR aérodromes proches

 

LFMN - Nice/Cote D'azur, France
Distance de la station: SO 20km
Mise à jour: 24-10-2017 00:00
dégagé
dégagé
 Wind from NNO
Vent: NNO 15 km/h
Température: 16°C
Point de rosée: -1°C
Humidité: 31%
Baromètre: 1017 hPa
Résumé: dégagé
Visibilité: supérieur à 10 km
2017/10/23 22:00 LFMN 232200Z 33008KT CAVOK 16/M01 Q1017 NOSIG
LFMD - Cannes/Mandelieu, France
Distance de la station: OSO 43km
Mise à jour: 24-10-2017 00:00
dégagé
dégagé
 Wind from N
Vent: N 7 km/h
Température: 11°C
Point de rosée: 4°C
Humidité: 62%
Baromètre: 1017 hPa
Résumé: dégagé
Visibilité: supérieur à 10 km
2017/10/23 22:00 LFMD 232200Z AUTO 01004KT CAVOK 11/04 Q1017
 
LIMY - Malanotte Mounta, Italy
Distance de la station: NNE 64km
Mise à jour: 22-10-2017 18:55
Données obsolètes
dégagé
dégagé
 Wind from N
Vent: N 13 km/h
Température: 15°C
Point de rosée: -2°C
Humidité: 31%
Baromètre: 1011 hPa
Résumé: dégagé
Visibilité: supérieur à 10 km
2017/10/22 16:55 LIMY 221655Z 35007KT CAVOK 15/M02 Q1011 RMK SKC VAL FOSCHIA VIS MIN 9999
LIMG - Albenga, Italy
Distance de la station: ENE 66km
Mise à jour: 23-10-2017 19:50
Données obsolètes
dégagé
dégagé
 Wind from calme
Vent: calme
Température: 13°C
Point de rosée: 5°C
Humidité: 59%
Baromètre: 1016 hPa
Résumé: dégagé
Visibilité: supérieur à 10 km
2017/10/23 17:50 LIMG 231750Z 00000KT CAVOK 13/05 Q1016
 
LIMU - Cape Mele, Italy
Distance de la station: ENE 66km
Mise à jour: 23-10-2017 23:55
dégagé
dégagé
 Wind from NNE
Vent: NNE 19 km/h
Température: 17°C
Point de rosée: 2°C
Humidité: 37%
Baromètre: 1018 hPa
Résumé: dégagé
Visibilité: supérieur à 10 km
2017/10/23 21:55 LIMU 232155Z 02010KT CAVOK 17/02 Q1018 RMK SKC QUK / QUL / VIS MAR 35 KM VIS MIN 9999